sensor_id;sensor_type;location;lat;lon;timestamp;pressure;altitude;pressure_sealevel;temperature
15544;BMP180;7873;52.230;12.856;2023-02-19T00:00:09;100689.69;;;25.32
15544;BMP180;7873;52.230;12.856;2023-02-19T00:02:36;100687.22;;;25.31
15544;BMP180;7873;52.230;12.856;2023-02-19T00:05:03;100687.78;;;25.26
15544;BMP180;7873;52.230;12.856;2023-02-19T00:07:30;100695.84;;;25.26
15544;BMP180;7873;52.230;12.856;2023-02-19T00:09:56;100697.06;;;25.24
15544;BMP180;7873;52.230;12.856;2023-02-19T00:12:23;100685.00;;;25.20
15544;BMP180;7873;52.230;12.856;2023-02-19T00:14:51;100677.13;;;25.18
15544;BMP180;7873;52.230;12.856;2023-02-19T00:17:19;100678.97;;;25.18
15544;BMP180;7873;52.230;12.856;2023-02-19T00:19:46;100686.38;;;25.16
15544;BMP180;7873;52.230;12.856;2023-02-19T00:22:12;100688.63;;;25.12
15544;BMP180;7873;52.230;12.856;2023-02-19T00:24:39;100688.38;;;25.07
15544;BMP180;7873;52.230;12.856;2023-02-19T00:27:06;100680.28;;;25.07
15544;BMP180;7873;52.230;12.856;2023-02-19T00:29:32;100685.84;;;25.06
15544;BMP180;7873;52.230;12.856;2023-02-19T00:32:00;100676.94;;;25.05
15544;BMP180;7873;52.230;12.856;2023-02-19T00:34:27;100684.41;;;25.03
15544;BMP180;7873;52.230;12.856;2023-02-19T00:36:54;100676.69;;;25.00
15544;BMP180;7873;52.230;12.856;2023-02-19T00:39:20;100673.34;;;24.98
15544;BMP180;7873;52.230;12.856;2023-02-19T00:41:47;100662.59;;;24.98
15544;BMP180;7873;52.230;12.856;2023-02-19T00:44:14;100665.28;;;24.98
15544;BMP180;7873;52.230;12.856;2023-02-19T00:46:43;100652.84;;;24.97
15544;BMP180;7873;52.230;12.856;2023-02-19T00:49:15;100652.19;;;24.95
15544;BMP180;7873;52.230;12.856;2023-02-19T00:51:42;100640.56;;;24.95
15544;BMP180;7873;52.230;12.856;2023-02-19T00:54:09;100639.09;;;24.92
15544;BMP180;7873;52.230;12.856;2023-02-19T00:56:36;100647.53;;;24.89
15544;BMP180;7873;52.230;12.856;2023-02-19T00:59:03;100628.25;;;24.86
15544;BMP180;7873;52.230;12.856;2023-02-19T01:01:29;100623.22;;;24.83
15544;BMP180;7873;52.230;12.856;2023-02-19T01:03:56;100623.22;;;24.83
15544;BMP180;7873;52.230;12.856;2023-02-19T01:06:24;100611.81;;;24.81
15544;BMP180;7873;52.230;12.856;2023-02-19T01:08:51;100612.66;;;24.81
15544;BMP180;7873;52.230;12.856;2023-02-19T01:11:17;100614.72;;;24.79
15544;BMP180;7873;52.230;12.856;2023-02-19T01:13:44;100609.97;;;24.81
15544;BMP180;7873;52.230;12.856;2023-02-19T01:16:12;100602.06;;;24.80
15544;BMP180;7873;52.230;12.856;2023-02-19T01:18:39;100589.19;;;24.75
15544;BMP180;7873;52.230;12.856;2023-02-19T01:21:08;100592.06;;;24.74
15544;BMP180;7873;52.230;12.856;2023-02-19T01:23:36;100593.09;;;24.73
15544;BMP180;7873;52.230;12.856;2023-02-19T01:26:04;100590.22;;;24.74
15544;BMP180;7873;52.230;12.856;2023-02-19T01:28:31;100588.56;;;24.73
15544;BMP180;7873;52.230;12.856;2023-02-19T01:31:00;100592.28;;;24.72
15544;BMP180;7873;52.230;12.856;2023-02-19T01:33:27;100597.38;;;24.67
15544;BMP180;7873;52.230;12.856;2023-02-19T01:35:53;100590.97;;;24.68
15544;BMP180;7873;52.230;12.856;2023-02-19T01:38:20;100604.44;;;24.68
15544;BMP180;7873;52.230;12.856;2023-02-19T01:40:54;100590.72;;;24.63
15544;BMP180;7873;52.230;12.856;2023-02-19T01:43:22;100581.81;;;24.63
15544;BMP180;7873;52.230;12.856;2023-02-19T01:45:49;100581.19;;;24.61
15544;BMP180;7873;52.230;12.856;2023-02-19T01:48:19;100571.44;;;24.60
15544;BMP180;7873;52.230;12.856;2023-02-19T01:50:50;100566.88;;;24.60
15544;BMP180;7873;52.230;12.856;2023-02-19T01:53:19;100572.63;;;24.57
15544;BMP180;7873;52.230;12.856;2023-02-19T01:55:49;100556.47;;;24.57
15544;BMP180;7873;52.230;12.856;2023-02-19T01:58:19;100554.81;;;24.56
15544;BMP180;7873;52.230;12.856;2023-02-19T02:00:46;100543.78;;;24.51
15544;BMP180;7873;52.230;12.856;2023-02-19T02:03:13;100542.78;;;24.52
15544;BMP180;7873;52.230;12.856;2023-02-19T02:05:45;100533.84;;;24.52
15544;BMP180;7873;52.230;12.856;2023-02-19T02:08:15;100539.75;;;24.47
15544;BMP180;7873;52.230;12.856;2023-02-19T02:11:01;100539.56;;;24.49
15544;BMP180;7873;52.230;12.856;2023-02-19T02:13:29;100530.69;;;24.48
15544;BMP180;7873;52.230;12.856;2023-02-19T02:16:05;100534.75;;;24.44
15544;BMP180;7873;52.230;12.856;2023-02-19T02:18:42;100525.88;;;24.44
15544;BMP180;7873;52.230;12.856;2023-02-19T02:21:29;100539.50;;;24.42
15544;BMP180;7873;52.230;12.856;2023-02-19T02:24:10;100542.19;;;24.42
15544;BMP180;7873;52.230;12.856;2023-02-19T02:26:56;100537.19;;;24.39
15544;BMP180;7873;52.230;12.856;2023-02-19T02:29:53;100538.22;;;24.38
15544;BMP180;7873;52.230;12.856;2023-02-19T02:32:26;100519.59;;;24.37
15544;BMP180;7873;52.230;12.856;2023-02-19T02:35:00;100518.91;;;24.35
15544;BMP180;7873;52.230;12.856;2023-02-19T02:37:32;100506.69;;;24.32
15544;BMP180;7873;52.230;12.856;2023-02-19T02:40:01;100510.41;;;24.31
15544;BMP180;7873;52.230;12.856;2023-02-19T02:42:28;100509.94;;;24.28
15544;BMP180;7873;52.230;12.856;2023-02-19T02:44:57;100510.97;;;24.27
15544;BMP180;7873;52.230;12.856;2023-02-19T02:47:45;100512.84;;;24.26
15544;BMP180;7873;52.230;12.856;2023-02-19T02:50:17;100503.94;;;24.26
15544;BMP180;7873;52.230;12.856;2023-02-19T02:52:49;100513.19;;;24.23
15544;BMP180;7873;52.230;12.856;2023-02-19T02:55:37;100510.50;;;24.23
15544;BMP180;7873;52.230;12.856;2023-02-19T02:58:06;100505.50;;;24.20
15544;BMP180;7873;52.230;12.856;2023-02-19T03:00:35;100504.88;;;24.18
15544;BMP180;7873;52.230;12.856;2023-02-19T03:03:17;100511.09;;;24.19
15544;BMP180;7873;52.230;12.856;2023-02-19T03:05:48;100506.28;;;24.14
15544;BMP180;7873;52.230;12.856;2023-02-19T03:08:22;100499.41;;;24.12
15544;BMP180;7873;52.230;12.856;2023-02-19T03:10:53;100497.94;;;24.09
15544;BMP180;7873;52.230;12.856;2023-02-19T03:13:25;100489.66;;;24.11
15544;BMP180;7873;52.230;12.856;2023-02-19T03:16:17;100492.75;;;24.08
15544;BMP180;7873;52.230;12.856;2023-02-19T03:19:03;100495.19;;;24.03
15544;BMP180;7873;52.230;12.856;2023-02-19T03:21:49;100497.03;;;24.02
15544;BMP180;7873;52.230;12.856;2023-02-19T03:24:19;100508.16;;;23.99
15544;BMP180;7873;52.230;12.856;2023-02-19T03:27:06;100513.91;;;23.96
15544;BMP180;7873;52.230;12.856;2023-02-19T03:29:35;100514.94;;;23.95
15544;BMP180;7873;52.230;12.856;2023-02-19T03:32:07;100518.47;;;23.96
15544;BMP180;7873;52.230;12.856;2023-02-19T03:34:37;100528.22;;;23.97
15544;BMP180;7873;52.230;12.856;2023-02-19T03:37:10;100526.06;;;23.92
15544;BMP180;7873;52.230;12.856;2023-02-19T03:39:37;100538.50;;;23.93
15544;BMP180;7873;52.230;12.856;2023-02-19T03:42:19;100534.16;;;23.92
15544;BMP180;7873;52.230;12.856;2023-02-19T03:44:55;100535.72;;;23.87
15544;BMP180;7873;52.230;12.856;2023-02-19T03:47:29;100540.06;;;23.88
15544;BMP180;7873;52.230;12.856;2023-02-19T03:50:02;100541.09;;;23.87
15544;BMP180;7873;52.230;12.856;2023-02-19T03:52:38;100547.50;;;23.86
15544;BMP180;7873;52.230;12.856;2023-02-19T03:55:10;100554.09;;;23.83
15544;BMP180;7873;52.230;12.856;2023-02-19T03:57:44;100567.56;;;23.83
15544;BMP180;7873;52.230;12.856;2023-02-19T04:00:16;100570.03;;;23.85
15544;BMP180;7873;52.230;12.856;2023-02-19T04:02:46;100572.28;;;23.82
15544;BMP180;7873;52.230;12.856;2023-02-19T04:05:18;100578.47;;;23.82
15544;BMP180;7873;52.230;12.856;2023-02-19T04:07:48;100588.75;;;23.78
15544;BMP180;7873;52.230;12.856;2023-02-19T04:10:17;100586.25;;;23.77
15544;BMP180;7873;52.230;12.856;2023-02-19T04:12:48;100575.47;;;23.77
15544;BMP180;7873;52.230;12.856;2023-02-19T04:15:19;100578.53;;;23.74
15544;BMP180;7873;52.230;12.856;2023-02-19T04:17:50;100582.25;;;23.73
15544;BMP180;7873;52.230;12.856;2023-02-19T04:20:19;100591.13;;;23.73
15544;BMP180;7873;52.230;12.856;2023-02-19T04:22:47;100587.81;;;23.72
15544;BMP180;7873;52.230;12.856;2023-02-19T04:25:14;100596.06;;;23.70
15544;BMP180;7873;52.230;12.856;2023-02-19T04:27:43;100606.19;;;23.68
15544;BMP180;7873;52.230;12.856;2023-02-19T04:30:12;100611.91;;;23.65
15544;BMP180;7873;52.230;12.856;2023-02-19T04:32:39;100610.44;;;23.63
15544;BMP180;7873;52.230;12.856;2023-02-19T04:35:07;100612.09;;;23.64
15544;BMP180;7873;52.230;12.856;2023-02-19T04:37:34;100614.97;;;23.62
15544;BMP180;7873;52.230;12.856;2023-02-19T04:40:01;100615.16;;;23.61
15544;BMP180;7873;52.230;12.856;2023-02-19T04:42:27;100619.69;;;23.60
15544;BMP180;7873;52.230;12.856;2023-02-19T04:44:54;100622.56;;;23.59
15544;BMP180;7873;52.230;12.856;2023-02-19T04:47:21;100622.56;;;23.59
15544;BMP180;7873;52.230;12.856;2023-02-19T04:49:47;100619.22;;;23.57
15544;BMP180;7873;52.230;12.856;2023-02-19T04:52:15;100621.25;;;23.55
15544;BMP180;7873;52.230;12.856;2023-02-19T04:54:42;100623.66;;;23.50
15544;BMP180;7873;52.230;12.856;2023-02-19T04:57:09;100619.13;;;23.50
15544;BMP180;7873;52.230;12.856;2023-02-19T04:59:35;100616.44;;;23.50
15544;BMP180;7873;52.230;12.856;2023-02-19T05:02:02;100619.13;;;23.50
15544;BMP180;7873;52.230;12.856;2023-02-19T05:04:29;100629.88;;;23.50
15544;BMP180;7873;52.230;12.856;2023-02-19T05:06:55;100638.09;;;23.49
15544;BMP180;7873;52.230;12.856;2023-02-19T05:09:23;100630.25;;;23.47
15544;BMP180;7873;52.230;12.856;2023-02-19T05:11:50;100633.09;;;23.46
15544;BMP180;7873;52.230;12.856;2023-02-19T05:14:16;100631.97;;;23.40
15544;BMP180;7873;52.230;12.856;2023-02-19T05:16:43;100628.47;;;23.40
15544;BMP180;7873;52.230;12.856;2023-02-19T05:19:10;100634.00;;;23.38
15544;BMP180;7873;52.230;12.856;2023-02-19T05:21:37;100634.19;;;23.37
15544;BMP180;7873;52.230;12.856;2023-02-19T05:24:04;100642.06;;;23.38
15544;BMP180;7873;52.230;12.856;2023-02-19T05:26:32;100638.56;;;23.38
15544;BMP180;7873;52.230;12.856;2023-02-19T05:28:59;100638.34;;;23.39
15544;BMP180;7873;52.230;12.856;2023-02-19T05:31:26;100642.53;;;23.42
15544;BMP180;7873;52.230;12.856;2023-02-19T05:33:55;100650.91;;;23.47
15544;BMP180;7873;52.230;12.856;2023-02-19T05:36:22;100651.19;;;23.52
15544;BMP180;7873;52.230;12.856;2023-02-19T05:38:51;100650.81;;;23.55
15544;BMP180;7873;52.230;12.856;2023-02-19T05:41:20;100641.75;;;23.56
15544;BMP180;7873;52.230;12.856;2023-02-19T05:43:48;100657.97;;;23.62
15544;BMP180;7873;52.230;12.856;2023-02-19T05:46:16;100654.75;;;23.67
15544;BMP180;7873;52.230;12.856;2023-02-19T05:48:44;100655.22;;;23.70
15544;BMP180;7873;52.230;12.856;2023-02-19T05:51:13;100659.38;;;23.73
15544;BMP180;7873;52.230;12.856;2023-02-19T05:53:41;100666.25;;;23.75
15544;BMP180;7873;52.230;12.856;2023-02-19T05:59:15;100671.44;;;23.76
15544;BMP180;7873;52.230;12.856;2023-02-19T06:01:42;100663.38;;;23.76
15544;BMP180;7873;52.230;12.856;2023-02-19T06:04:09;100668.94;;;23.75
15544;BMP180;7873;52.230;12.856;2023-02-19T06:06:35;100672.28;;;23.77
15544;BMP180;7873;52.230;12.856;2023-02-19T06:09:03;100671.44;;;23.76
15544;BMP180;7873;52.230;12.856;2023-02-19T06:11:29;100670.63;;;23.76
15544;BMP180;7873;52.230;12.856;2023-02-19T06:13:56;100688.97;;;23.73
15544;BMP180;7873;52.230;12.856;2023-02-19T06:16:24;100681.53;;;23.74
15544;BMP180;7873;52.230;12.856;2023-02-19T06:18:51;100691.47;;;23.74
15544;BMP180;7873;52.230;12.856;2023-02-19T06:21:18;100704.06;;;23.73
15544;BMP180;7873;52.230;12.856;2023-02-19T06:23:45;100703.41;;;23.72
15544;BMP180;7873;52.230;12.856;2023-02-19T06:26:14;100697.03;;;23.73
15544;BMP180;7873;52.230;12.856;2023-02-19T06:28:42;100708.16;;;23.70
15544;BMP180;7873;52.230;12.856;2023-02-19T06:31:09;100709.66;;;23.50
15544;BMP180;7873;52.230;12.856;2023-02-19T06:33:38;100729.00;;;23.23
15544;BMP180;7873;52.230;12.856;2023-02-19T06:36:07;100729.94;;;23.07
15544;BMP180;7873;52.230;12.856;2023-02-19T06:38:34;100740.00;;;23.05
15544;BMP180;7873;52.230;12.856;2023-02-19T06:41:01;100741.19;;;23.11
15544;BMP180;7873;52.230;12.856;2023-02-19T06:43:29;100746.88;;;23.16
15544;BMP180;7873;52.230;12.856;2023-02-19T06:45:57;100751.03;;;23.18
15544;BMP180;7873;52.230;12.856;2023-02-19T06:48:24;100754.38;;;23.20
15544;BMP180;7873;52.230;12.856;2023-02-19T06:50:52;100760.44;;;23.22
15544;BMP180;7873;52.230;12.856;2023-02-19T06:53:19;100774.31;;;23.26
15544;BMP180;7873;52.230;12.856;2023-02-19T06:55:54;100763.41;;;23.27
15544;BMP180;7873;52.230;12.856;2023-02-19T06:58:21;100765.25;;;23.27
15544;BMP180;7873;52.230;12.856;2023-02-19T07:00:47;100764.25;;;23.28
15544;BMP180;7873;52.230;12.856;2023-02-19T07:03:16;100775.63;;;23.30
15544;BMP180;7873;52.230;12.856;2023-02-19T07:05:42;100781.88;;;23.30
15544;BMP180;7873;52.230;12.856;2023-02-19T07:08:10;100782.88;;;23.29
15544;BMP180;7873;52.230;12.856;2023-02-19T07:10:37;100801.50;;;23.31
15544;BMP180;7873;52.230;12.856;2023-02-19T07:13:04;100797.13;;;23.30
15544;BMP180;7873;52.230;12.856;2023-02-19T07:15:30;100799.81;;;23.30
15544;BMP180;7873;52.230;12.856;2023-02-19T07:17:59;100810.75;;;23.28
15544;BMP180;7873;52.230;12.856;2023-02-19T07:20:26;100815.28;;;23.28
15544;BMP180;7873;52.230;12.856;2023-02-19T07:22:52;100809.09;;;23.27
15544;BMP180;7873;52.230;12.856;2023-02-19T07:25:21;100809.25;;;23.26
15544;BMP180;7873;52.230;12.856;2023-02-19T07:27:47;100822.69;;;23.26
15544;BMP180;7873;52.230;12.856;2023-02-19T07:30:14;100826.03;;;23.28
15544;BMP180;7873;52.230;12.856;2023-02-19T07:32:41;100841.34;;;23.27
15544;BMP180;7873;52.230;12.856;2023-02-19T07:35:10;100839.47;;;23.28
15544;BMP180;7873;52.230;12.856;2023-02-19T07:37:39;100842.66;;;23.31
15544;BMP180;7873;52.230;12.856;2023-02-19T07:40:06;100855.94;;;23.33
15544;BMP180;7873;52.230;12.856;2023-02-19T07:42:34;100852.03;;;23.35
15544;BMP180;7873;52.230;12.856;2023-02-19T07:45:02;100860.09;;;23.35
15544;BMP180;7873;52.230;12.856;2023-02-19T07:47:32;100863.63;;;23.36
15544;BMP180;7873;52.230;12.856;2023-02-19T07:50:01;100868.34;;;23.34
15544;BMP180;7873;52.230;12.856;2023-02-19T07:52:32;100879.25;;;23.32
15544;BMP180;7873;52.230;12.856;2023-02-19T07:55:01;100883.47;;;23.35
15544;BMP180;7873;52.230;12.856;2023-02-19T07:57:30;100892.19;;;23.37
15544;BMP180;7873;52.230;12.856;2023-02-19T08:00:01;100894.00;;;23.36
15544;BMP180;7873;52.230;12.856;2023-02-19T08:02:30;100895.88;;;23.36
15544;BMP180;7873;52.230;12.856;2023-02-19T08:05:17;100895.88;;;23.36
15544;BMP180;7873;52.230;12.856;2023-02-19T08:07:47;100911.00;;;23.37
15544;BMP180;7873;52.230;12.856;2023-02-19T08:10:18;100916.72;;;23.34
15544;BMP180;7873;52.230;12.856;2023-02-19T08:13:03;100913.34;;;23.32
15544;BMP180;7873;52.230;12.856;2023-02-19T08:15:52;100922.41;;;23.31
15544;BMP180;7873;52.230;12.856;2023-02-19T08:18:24;100923.28;;;23.31
15544;BMP180;7873;52.230;12.856;2023-02-19T08:20:54;100928.50;;;23.25
15544;BMP180;7873;52.230;12.856;2023-02-19T08:23:25;100929.50;;;23.24
15544;BMP180;7873;52.230;12.856;2023-02-19T08:25:56;100949.69;;;23.20
15544;BMP180;7873;52.230;12.856;2023-02-19T08:28:24;100952.72;;;23.17
15544;BMP180;7873;52.230;12.856;2023-02-19T08:30:52;100957.38;;;23.07
15544;BMP180;7873;52.230;12.856;2023-02-19T08:33:20;100961.44;;;23.03
15544;BMP180;7873;52.230;12.856;2023-02-19T08:35:46;100963.47;;;23.01
15544;BMP180;7873;52.230;12.856;2023-02-19T08:38:13;100975.03;;;22.93
15544;BMP180;7873;52.230;12.856;2023-02-19T08:40:41;100975.22;;;22.92
15544;BMP180;7873;52.230;12.856;2023-02-19T08:43:10;100974.72;;;22.88
15544;BMP180;7873;52.230;12.856;2023-02-19T08:45:37;100983.28;;;22.92
15544;BMP180;7873;52.230;12.856;2023-02-19T08:48:06;100979.44;;;22.86
15544;BMP180;7873;52.230;12.856;2023-02-19T08:50:34;101001.56;;;22.88
15544;BMP180;7873;52.230;12.856;2023-02-19T08:53:01;101007.97;;;22.87
15544;BMP180;7873;52.230;12.856;2023-02-19T08:55:28;101001.59;;;22.80
15544;BMP180;7873;52.230;12.856;2023-02-19T08:57:55;100992.88;;;22.78
15544;BMP180;7873;52.230;12.856;2023-02-19T09:00:22;101002.94;;;22.84
15544;BMP180;7873;52.230;12.856;2023-02-19T09:02:49;101007.13;;;22.87
15544;BMP180;7873;52.230;12.856;2023-02-19T09:05:17;101008.63;;;22.89
15544;BMP180;7873;52.230;12.856;2023-02-19T09:07:44;101010.50;;;22.89
15544;BMP180;7873;52.230;12.856;2023-02-19T09:10:12;101005.94;;;22.89
15544;BMP180;7873;52.230;12.856;2023-02-19T09:12:39;101022.06;;;22.89
15544;BMP180;7873;52.230;12.856;2023-02-19T09:15:06;101014.00;;;22.89
15544;BMP180;7873;52.230;12.856;2023-02-19T09:17:33;101008.81;;;22.88
15544;BMP180;7873;52.230;12.856;2023-02-19T09:20:00;101012.16;;;22.90
15544;BMP180;7873;52.230;12.856;2023-02-19T09:22:28;101018.34;;;22.90
15544;BMP180;7873;52.230;12.856;2023-02-19T09:24:54;101024.59;;;22.91
15544;BMP180;7873;52.230;12.856;2023-02-19T09:27:21;101029.75;;;22.92
15544;BMP180;7873;52.230;12.856;2023-02-19T09:29:48;101030.78;;;22.91
15544;BMP180;7873;52.230;12.856;2023-02-19T09:32:14;101028.28;;;22.90
15544;BMP180;7873;52.230;12.856;2023-02-19T09:34:41;101040.84;;;22.89
15544;BMP180;7873;52.230;12.856;2023-02-19T09:37:08;101044.38;;;22.90
15544;BMP180;7873;52.230;12.856;2023-02-19T09:39:36;101051.59;;;22.89
15544;BMP180;7873;52.230;12.856;2023-02-19T09:42:10;101057.81;;;22.90
15544;BMP180;7873;52.230;12.856;2023-02-19T09:44:40;101054.94;;;22.91
15544;BMP180;7873;52.230;12.856;2023-02-19T09:47:14;101056.16;;;22.89
15544;BMP180;7873;52.230;12.856;2023-02-19T09:49:43;101062.19;;;22.91
15544;BMP180;7873;52.230;12.856;2023-02-19T09:52:18;101061.31;;;22.90
15544;BMP180;7873;52.230;12.856;2023-02-19T09:54:46;101075.09;;;22.87
15544;BMP180;7873;52.230;12.856;2023-02-19T09:57:15;101085.84;;;22.87
15544;BMP180;7873;52.230;12.856;2023-02-19T09:59:45;101079.81;;;22.85
15544;BMP180;7873;52.230;12.856;2023-02-19T10:02:15;101088.00;;;22.84
15544;BMP180;7873;52.230;12.856;2023-02-19T10:04:43;101078.81;;;22.78
15544;BMP180;7873;52.230;12.856;2023-02-19T10:07:11;101074.91;;;22.81
15544;BMP180;7873;52.230;12.856;2023-02-19T10:09:38;101078.59;;;22.80
15544;BMP180;7873;52.230;12.856;2023-02-19T10:12:13;101075.25;;;22.78
15544;BMP180;7873;52.230;12.856;2023-02-19T10:14:44;101078.13;;;22.76
15544;BMP180;7873;52.230;12.856;2023-02-19T10:17:22;101087.69;;;22.71
15544;BMP180;7873;52.230;12.856;2023-02-19T10:19:49;101092.72;;;22.66
15544;BMP180;7873;52.230;12.856;2023-02-19T10:22:16;101098.22;;;22.64
15544;BMP180;7873;52.230;12.856;2023-02-19T10:24:44;101111.66;;;22.64
15544;BMP180;7873;52.230;12.856;2023-02-19T10:27:14;101112.50;;;22.65
15544;BMP180;7873;52.230;12.856;2023-02-19T10:29:42;101121.72;;;22.62
15544;BMP180;7873;52.230;12.856;2023-02-19T10:32:14;101131.47;;;22.63
15544;BMP180;7873;52.230;12.856;2023-02-19T10:34:43;101125.06;;;22.64
15544;BMP180;7873;52.230;12.856;2023-02-19T10:37:13;101125.41;;;22.61
15544;BMP180;7873;52.230;12.856;2023-02-19T10:39:42;101132.59;;;22.61
15544;BMP180;7873;52.230;12.856;2023-02-19T10:42:17;101141.84;;;22.58
15544;BMP180;7873;52.230;12.856;2023-02-19T10:44:45;101136.81;;;22.55
15544;BMP180;7873;52.230;12.856;2023-02-19T10:47:18;101144.19;;;22.53
15544;BMP180;7873;52.230;12.856;2023-02-19T10:49:46;101156.94;;;22.51
15544;BMP180;7873;52.230;12.856;2023-02-19T10:52:17;101153.41;;;22.51
15544;BMP180;7873;52.230;12.856;2023-02-19T10:54:49;101165.97;;;22.50
15544;BMP180;7873;52.230;12.856;2023-02-19T10:57:30;101175.19;;;22.48
15544;BMP180;7873;52.230;12.856;2023-02-19T10:59:59;101184.06;;;22.48
15544;BMP180;7873;52.230;12.856;2023-02-19T11:02:27;101184.59;;;22.44
15544;BMP180;7873;52.230;12.856;2023-02-19T11:05:03;101167.97;;;22.48
15544;BMP180;7873;52.230;12.856;2023-02-19T11:07:30;101178.56;;;22.50
15544;BMP180;7873;52.230;12.856;2023-02-19T11:09:58;101179.56;;;22.49
15544;BMP180;7873;52.230;12.856;2023-02-19T11:12:27;101184.59;;;22.52
15544;BMP180;7873;52.230;12.856;2023-02-19T11:14:56;101185.25;;;22.46
15544;BMP180;7873;52.230;12.856;2023-02-19T11:17:25;101188.78;;;22.46
15544;BMP180;7873;52.230;12.856;2023-02-19T11:19:54;101194.13;;;22.38
15544;BMP180;7873;52.230;12.856;2023-02-19T11:22:30;101187.50;;;22.33
15544;BMP180;7873;52.230;12.856;2023-02-19T11:25:02;101200.94;;;22.33
15544;BMP180;7873;52.230;12.856;2023-02-19T11:27:30;101200.59;;;22.36
15544;BMP180;7873;52.230;12.856;2023-02-19T11:30:25;101215.59;;;22.38
15544;BMP180;7873;52.230;12.856;2023-02-19T11:33:12;101228.16;;;22.38
15544;BMP180;7873;52.230;12.856;2023-02-19T11:35:45;101224.31;;;22.40
15544;BMP180;7873;52.230;12.856;2023-02-19T11:38:14;101222.16;;;22.44
15544;BMP180;7873;52.230;12.856;2023-02-19T11:40:44;101203.53;;;22.42
15544;BMP180;7873;52.230;12.856;2023-02-19T11:43:30;101211.25;;;22.45
15544;BMP180;7873;52.230;12.856;2023-02-19T11:46:05;101204.06;;;22.46
15544;BMP180;7873;52.230;12.856;2023-02-19T11:48:50;101211.91;;;22.47
15544;BMP180;7873;52.230;12.856;2023-02-19T11:51:37;101226.00;;;22.41
15544;BMP180;7873;52.230;12.856;2023-02-19T11:54:17;101214.88;;;22.36
15544;BMP180;7873;52.230;12.856;2023-02-19T11:56:50;101213.53;;;22.32
15544;BMP180;7873;52.230;12.856;2023-02-19T11:59:28;101211.03;;;22.39
15544;BMP180;7873;52.230;12.856;2023-02-19T12:02:12;101208.75;;;22.52
15544;BMP180;7873;52.230;12.856;2023-02-19T12:11:14;101224.13;;;22.75
15544;BMP180;7873;52.230;12.856;2023-02-19T12:14:00;101221.59;;;22.82
15544;BMP180;7873;52.230;12.856;2023-02-19T12:16:30;101222.28;;;22.84
15544;BMP180;7873;52.230;12.856;2023-02-19T12:19:24;101222.97;;;22.86
15544;BMP180;7873;52.230;12.856;2023-02-19T12:22:10;101229.03;;;22.88
15544;BMP180;7873;52.230;12.856;2023-02-19T12:25:15;101242.59;;;22.86
15544;BMP180;7873;52.230;12.856;2023-02-19T12:27:59;101247.81;;;22.88
15544;BMP180;7873;52.230;12.856;2023-02-19T12:30:43;101244.47;;;22.86
15544;BMP180;7873;52.230;12.856;2023-02-19T12:33:33;101250.47;;;22.80
15544;BMP180;7873;52.230;12.856;2023-02-19T12:36:12;101252.59;;;22.68
15544;BMP180;7873;52.230;12.856;2023-02-19T12:38:43;101251.25;;;22.64
15544;BMP180;7873;52.230;12.856;2023-02-19T12:41:19;101247.53;;;22.57
15544;BMP180;7873;52.230;12.856;2023-02-19T12:43:52;101252.25;;;22.55
15544;BMP180;7873;52.230;12.856;2023-02-19T12:46:25;101250.38;;;22.56
15544;BMP180;7873;52.230;12.856;2023-02-19T12:48:56;101255.06;;;22.54
15544;BMP180;7873;52.230;12.856;2023-02-19T12:51:30;101255.06;;;22.54
15544;BMP180;7873;52.230;12.856;2023-02-19T12:54:01;101268.16;;;22.57
15544;BMP180;7873;52.230;12.856;2023-02-19T12:56:33;101269.69;;;22.59
15544;BMP180;7873;52.230;12.856;2023-02-19T12:59:04;101272.19;;;22.61
15544;BMP180;7873;52.230;12.856;2023-02-19T13:01:38;101267.53;;;22.63
15544;BMP180;7873;52.230;12.856;2023-02-19T13:04:15;101271.56;;;22.67
15544;BMP180;7873;52.230;12.856;2023-02-19T13:06:49;101275.28;;;22.66
15544;BMP180;7873;52.230;12.856;2023-02-19T13:09:21;101277.63;;;22.69
15544;BMP180;7873;52.230;12.856;2023-02-19T13:11:54;101282.81;;;22.70
15544;BMP180;7873;52.230;12.856;2023-02-19T13:14:26;101283.50;;;22.72
15544;BMP180;7873;52.230;12.856;2023-02-19T13:16:57;101294.56;;;22.69
15544;BMP180;7873;52.230;12.856;2023-02-19T13:19:26;101291.06;;;22.69
15544;BMP180;7873;52.230;12.856;2023-02-19T13:22:02;101287.84;;;22.65
15544;BMP180;7873;52.230;12.856;2023-02-19T13:24:49;101298.91;;;22.62
15544;BMP180;7873;52.230;12.856;2023-02-19T13:27:31;101303.94;;;22.65
15544;BMP180;7873;52.230;12.856;2023-02-19T13:30:19;101295.41;;;22.70
15544;BMP180;7873;52.230;12.856;2023-02-19T13:32:54;101288.38;;;22.69
15544;BMP180;7873;52.230;12.856;2023-02-19T13:35:27;101291.53;;;22.72
15544;BMP180;7873;52.230;12.856;2023-02-19T13:38:02;101289.03;;;22.71
15544;BMP180;7873;52.230;12.856;2023-02-19T13:40:33;101293.41;;;22.72
15544;BMP180;7873;52.230;12.856;2023-02-19T13:43:02;101288.03;;;22.72
15544;BMP180;7873;52.230;12.856;2023-02-19T13:45:32;101290.53;;;22.73
15544;BMP180;7873;52.230;12.856;2023-02-19T13:48:11;101294.94;;;22.74
15544;BMP180;7873;52.230;12.856;2023-02-19T13:50:39;101290.03;;;22.70
15544;BMP180;7873;52.230;12.856;2023-02-19T13:56:36;101290.72;;;22.72
15544;BMP180;7873;52.230;12.856;2023-02-19T13:59:23;101290.06;;;22.78
15544;BMP180;7873;52.230;12.856;2023-02-19T14:02:12;101290.94;;;22.78
15544;BMP180;7873;52.230;12.856;2023-02-19T14:04:46;101288.06;;;22.80
15544;BMP180;7873;52.230;12.856;2023-02-19T14:07:21;101303.34;;;22.79
15544;BMP180;7873;52.230;12.856;2023-02-19T14:09:58;101305.84;;;22.81
15544;BMP180;7873;52.230;12.856;2023-02-19T14:12:31;101309.72;;;22.78
15544;BMP180;7873;52.230;12.856;2023-02-19T14:18:00;101302.13;;;22.74
15544;BMP180;7873;52.230;12.856;2023-02-19T14:20:41;101319.25;;;22.73
15544;BMP180;7873;52.230;12.856;2023-02-19T14:23:16;101320.41;;;22.70
15544;BMP180;7873;52.230;12.856;2023-02-19T14:25:59;101315.03;;;22.70
15544;BMP180;7873;52.230;12.856;2023-02-19T14:28:32;101315.72;;;22.72
15544;BMP180;7873;52.230;12.856;2023-02-19T14:31:08;101327.16;;;22.74
15544;BMP180;7873;52.230;12.856;2023-02-19T14:33:36;101328.84;;;22.75